createdAt,value
2023-01-20T00:01:43.148Z,5.07
2023-01-20T00:04:12.533Z,5.07
2023-01-20T00:06:39.244Z,5.10
2023-01-20T00:09:06.441Z,5.32
2023-01-20T00:11:33.502Z,5.80
2023-01-20T00:14:01.968Z,5.15
2023-01-20T00:16:29.823Z,6.00
2023-01-20T00:18:58.795Z,6.57
2023-01-20T00:21:28.062Z,5.72
2023-01-20T00:23:55.365Z,5.10
2023-01-20T00:26:24.011Z,5.22
2023-01-20T00:28:53.938Z,6.07
2023-01-20T00:31:23.031Z,5.60
2023-01-20T00:33:51.351Z,5.88
2023-01-20T00:36:20.233Z,7.03
2023-01-20T00:38:47.148Z,5.43
2023-01-20T00:41:15.529Z,5.50
2023-01-20T00:43:42.993Z,4.80
2023-01-20T00:46:10.675Z,6.85
2023-01-20T00:48:38.154Z,5.80
2023-01-20T00:51:08.164Z,6.10
2023-01-20T00:53:35.251Z,5.90
2023-01-20T00:56:02.097Z,6.53
2023-01-20T00:58:28.961Z,5.88
2023-01-20T01:00:58.841Z,6.68
2023-01-20T01:03:33.092Z,5.82
2023-01-20T01:06:08.255Z,5.82
2023-01-20T01:08:37.423Z,7.00
2023-01-20T01:11:05.140Z,5.70
2023-01-20T01:13:32.673Z,6.22
2023-01-20T01:15:59.531Z,5.95
2023-01-20T01:18:26.239Z,6.53
2023-01-20T01:20:52.885Z,7.03
2023-01-20T01:23:22.036Z,5.63
2023-01-20T01:25:50.847Z,6.47
2023-01-20T01:28:17.557Z,5.60
2023-01-20T01:30:48.755Z,6.10
2023-01-20T01:33:15.433Z,7.00
2023-01-20T01:35:44.388Z,6.43
2023-01-20T01:38:13.392Z,5.82
2023-01-20T01:40:48.023Z,6.75
2023-01-20T01:43:33.739Z,6.20
2023-01-20T01:46:03.272Z,6.63
2023-01-20T01:48:54.833Z,6.55
2023-01-20T01:51:28.881Z,6.50
2023-01-20T01:54:00.115Z,6.20
2023-01-20T01:56:29.837Z,6.05
2023-01-20T01:59:00.205Z,6.03
2023-01-20T02:01:28.626Z,5.95
2023-01-20T02:04:03.366Z,5.60
2023-01-20T02:06:33.180Z,5.40
2023-01-20T02:09:03.406Z,6.30
2023-01-20T02:13:59.021Z,5.20
2023-01-20T02:16:44.452Z,5.35
2023-01-20T02:19:35.289Z,5.63
2023-01-20T02:22:12.762Z,6.03
2023-01-20T02:25:00.194Z,5.18
2023-01-20T02:27:29.649Z,5.78
2023-01-20T02:30:12.419Z,5.78
2023-01-20T02:32:59.339Z,5.07
2023-01-20T02:35:48.740Z,5.13
2023-01-20T02:38:27.124Z,5.13
2023-01-20T02:41:06.797Z,4.75
2023-01-20T02:43:43.452Z,5.50
2023-01-20T02:46:10.103Z,5.57
2023-01-20T02:48:48.762Z,4.38
2023-01-20T02:51:23.512Z,5.22
2023-01-20T02:54:08.048Z,4.70
2023-01-20T02:56:36.560Z,4.82
2023-01-20T02:59:16.479Z,4.20
2023-01-20T03:01:52.691Z,5.55
2023-01-20T03:04:26.460Z,5.25
2023-01-20T03:06:59.111Z,5.25
2023-01-20T03:09:38.154Z,6.03
2023-01-20T03:12:14.203Z,5.07
2023-01-20T03:14:42.991Z,5.40
2023-01-20T03:17:09.919Z,4.78
2023-01-20T03:19:40.982Z,4.78
2023-01-20T03:22:07.767Z,5.53
2023-01-20T03:24:37.584Z,5.22
2023-01-20T03:27:04.726Z,5.55
2023-01-20T03:29:32.529Z,5.63
2023-01-20T03:32:05.913Z,5.45
2023-01-20T03:34:41.803Z,5.47
2023-01-20T03:37:10.183Z,5.25
2023-01-20T03:39:39.813Z,6.05
2023-01-20T03:42:15.553Z,5.35
2023-01-20T03:44:57.030Z,5.70
2023-01-20T03:47:45.570Z,5.28
2023-01-20T03:50:31.816Z,5.03
2023-01-20T03:53:07.527Z,6.05
2023-01-20T03:55:45.009Z,5.28
2023-01-20T03:58:20.688Z,5.63
2023-01-20T04:00:50.322Z,6.28
2023-01-20T04:03:21.356Z,6.13
2023-01-20T04:05:49.197Z,5.85
2023-01-20T04:08:22.074Z,4.85
2023-01-20T04:10:50.171Z,5.45
2023-01-20T04:13:16.941Z,5.80
2023-01-20T04:15:45.648Z,5.80
2023-01-20T04:18:16.482Z,5.55
2023-01-20T04:20:46.247Z,5.35
2023-01-20T04:23:26.528Z,6.10
2023-01-20T04:28:19.825Z,5.57
2023-01-20T04:30:46.528Z,5.85
2023-01-20T04:33:13.289Z,5.30
2023-01-20T04:35:40.116Z,5.30
2023-01-20T04:38:06.812Z,5.82
2023-01-20T04:40:33.476Z,5.70
2023-01-20T04:43:00.218Z,5.43
2023-01-20T04:45:26.933Z,5.70
2023-01-20T04:47:53.609Z,6.30
2023-01-20T04:50:22.802Z,5.97
2023-01-20T04:52:51.859Z,6.53
2023-01-20T04:55:21.220Z,5.95
2023-01-20T04:57:50.373Z,5.77
2023-01-20T05:00:20.613Z,5.32
2023-01-20T05:05:14.580Z,5.70
2023-01-20T05:07:41.552Z,5.90
2023-01-20T05:10:13.104Z,5.93
2023-01-20T05:12:41.199Z,5.68
2023-01-20T05:15:08.323Z,5.82
2023-01-20T05:17:34.964Z,5.30
2023-01-20T05:20:04.047Z,6.00
2023-01-20T05:22:33.172Z,5.53
2023-01-20T05:25:00.339Z,5.90
2023-01-20T05:27:29.179Z,5.90
2023-01-20T05:29:55.836Z,6.10
2023-01-20T05:32:24.750Z,5.70
2023-01-20T05:34:53.650Z,6.28
2023-01-20T05:37:20.329Z,6.25
2023-01-20T05:39:47.012Z,5.85
2023-01-20T05:42:16.008Z,6.47
2023-01-20T05:44:42.776Z,6.63
2023-01-20T05:47:09.584Z,6.00
2023-01-20T05:49:36.266Z,6.35
2023-01-20T05:52:03.026Z,6.40
2023-01-20T05:54:29.703Z,6.20
2023-01-20T05:56:56.383Z,7.25
2023-01-20T05:59:25.889Z,6.50
2023-01-20T06:01:52.601Z,6.85
2023-01-20T06:04:19.265Z,6.15
2023-01-20T06:06:48.197Z,6.00
2023-01-20T06:09:19.685Z,5.72
2023-01-20T06:11:46.354Z,6.78
2023-01-20T06:14:13.095Z,6.32
2023-01-20T06:16:39.797Z,6.00
2023-01-20T06:19:06.512Z,6.03
2023-01-20T06:21:33.156Z,5.78
2023-01-20T06:23:59.880Z,5.80
2023-01-20T06:26:28.957Z,6.50
2023-01-20T06:29:00.606Z,6.28
2023-01-20T06:31:28.556Z,6.55
2023-01-20T06:33:56.376Z,6.50
2023-01-20T06:36:23.725Z,6.80
2023-01-20T06:38:51.059Z,6.90
2023-01-20T06:41:19.109Z,6.10
2023-01-20T06:43:45.876Z,6.05
2023-01-20T06:46:14.668Z,6.13
2023-01-20T06:48:44.708Z,5.78
2023-01-20T06:51:17.770Z,6.65
2023-01-20T06:53:45.342Z,6.05
2023-01-20T06:56:13.882Z,6.88
2023-01-20T06:58:40.620Z,6.55
2023-01-20T07:01:13.843Z,7.00
2023-01-20T07:03:43.512Z,6.07
2023-01-20T07:06:29.519Z,7.50
2023-01-20T07:09:00.193Z,7.05
2023-01-20T07:11:27.814Z,7.85
2023-01-20T07:13:56.861Z,7.40
2023-01-20T07:16:26.126Z,7.68
2023-01-20T07:18:53.694Z,7.70
2023-01-20T07:21:20.942Z,7.43
2023-01-20T07:23:50.335Z,6.93
2023-01-20T07:26:19.635Z,7.72
2023-01-20T07:28:47.194Z,7.57
2023-01-20T07:31:17.403Z,8.13
